Time;durP1;ratioP1;P1;durP2;ratioP2;P2;SDS_P1;SDS_P2;PMS_P1;PMS_P2;Temp;Humidity;BMP_temperature;BMP_pressure;BME280_temperature;BME280_humidity;BME280_pressure;Samples;Min_cycle;Max_cycle;Signal;HPM_P1;HPM_P2
2023/08/03 00:05:36;;;;;;;3.23;0.50;;;;;;;;;;20954073;28;20320;-69
2023/08/03 00:15:37;;;;;;;1.03;0.50;;;;;;;;;;20936907;28;20219;-69
2023/08/03 00:25:40;;;;;;;0.70;0.40;;;;;;;;;;20968990;28;20239;-67
2023/08/03 00:35:42;;;;;;;2.63;0.57;;;;;;;;;;20935626;28;20277;-69
2023/08/03 00:45:44;;;;;;;2.87;0.53;;;;;;;;;;20918920;28;20239;-69
2023/08/03 00:55:45;;;;;;;3.43;0.70;;;;;;;;;;20951059;28;20371;-68
2023/08/03 01:05:47;;;;;;;2.83;0.90;;;;;;;;;;20935307;28;20566;-73
2023/08/03 01:15:50;;;;;;;0.53;0.40;;;;;;;;;;20949974;22;20359;-69
2023/08/03 01:25:52;;;;;;;1.63;0.50;;;;;;;;;;20869821;28;20234;-69
2023/08/03 01:35:54;;;;;;;1.53;0.50;;;;;;;;;;20859029;28;20269;-72
2023/08/03 01:45:56;;;;;;;1.87;0.40;;;;;;;;;;20865155;28;20225;-68
2023/08/03 01:55:57;;;;;;;1.30;0.40;;;;;;;;;;20823442;28;20249;-69
2023/08/03 02:05:59;;;;;;;1.53;0.50;;;;;;;;;;20831988;28;20281;-68
2023/08/03 02:16:02;;;;;;;1.20;0.30;;;19.30;99.90;;;;;;20824667;28;20277;-69
2023/08/03 02:26:05;;;;;;;0.93;0.40;;;;;;;;;;20821615;28;20289;-69
2023/08/03 02:36:08;;;;;;;0.37;0.20;;;;;;;;;;20838839;28;20242;-68
2023/08/03 02:46:12;;;;;;;1.07;0.43;;;;;;;;;;20863962;28;20304;-69
2023/08/03 02:56:14;;;;;;;1.13;0.30;;;;;;;;;;20844442;28;20516;-69
2023/08/03 03:06:22;;;;;;;0.90;0.40;;;;;;;;;;20867726;28;20219;-69
2023/08/03 03:16:26;;;;;;;2.03;0.50;;;;;;;;;;20833313;28;20307;-68
2023/08/03 03:26:29;;;;;;;0.90;0.40;;;;;;;;;;20869458;28;20222;-69
2023/08/03 03:36:33;;;;;;;0.50;0.27;;;;;;;;;;20840765;28;20236;-71
2023/08/03 03:46:35;;;;;;;1.83;0.30;;;;;;;;;;20868498;28;20222;-72
2023/08/03 03:56:37;;;;;;;0.67;0.37;;;;;;;;;;20862548;28;20257;-75
2023/08/03 04:06:40;;;;;;;1.47;0.53;;;;;;;;;;20830196;28;20221;-72
2023/08/03 04:16:42;;;;;;;0.50;0.30;;;;;;;;;;20830729;28;20607;-71
2023/08/03 04:26:44;;;;;;;0.70;0.40;;;;;;;;;;20872000;28;20257;-69
2023/08/03 04:36:52;;;;;;;1.37;0.60;;;;;;;;;;20796125;28;20218;-70
2023/08/03 04:46:55;;;;;;;0.70;0.30;;;;;;;;;;20817678;28;20653;-70
2023/08/03 04:56:59;;;;;;;1.07;0.40;;;;;;;;;;20837026;28;21484;-70
2023/08/03 05:07:02;;;;;;;0.50;0.30;;;;;;;;;;20832320;28;20233;-69
2023/08/03 05:17:05;;;;;;;1.17;0.30;;;;;;;;;;20818857;28;20236;-69
2023/08/03 05:27:09;;;;;;;1.07;0.40;;;18.70;99.90;;;;;;20790530;28;20226;-70
2023/08/03 05:37:11;;;;;;;2.20;0.50;;;;;;;;;;20796667;28;20932;-69
2023/08/03 05:47:17;;;;;;;2.30;0.40;;;;;;;;;;20821231;28;20222;-69
2023/08/03 05:57:19;;;;;;;0.67;0.40;;;;;;;;;;20881339;28;20690;-69
2023/08/03 06:07:21;;;;;;;2.27;0.70;;;;;;;;;;20823690;28;20255;-70
2023/08/03 06:17:23;;;;;;;0.80;0.40;;;;;;;;;;20801334;28;20231;-70
2023/08/03 06:27:25;;;;;;;4.53;1.57;;;;;;;;;;20788721;28;20612;-70
2023/08/03 06:37:27;;;;;;;1.80;0.60;;;;;;;;;;20815960;28;20231;-71
2023/08/03 06:47:29;;;;;;;0.80;0.40;;;;;;;;;;20849535;28;20711;-71
2023/08/03 06:57:31;;;;;;;1.50;0.40;;;;;;;;;;20842537;28;20222;-71
2023/08/03 07:07:33;;;;;;;1.43;0.53;;;;;;;;;;20832107;28;20248;-73
2023/08/03 07:17:35;;;;;;;0.80;0.53;;;;;;;;;;20848457;28;20221;-70
2023/08/03 07:27:40;;;;;;;1.13;0.20;;;;;;;;;;20905133;22;20225;-73
2023/08/03 07:37:42;;;;;;;2.07;0.53;;;;;;;;;;20971124;28;20259;-74
2023/08/03 07:47:44;;;;;;;1.17;0.50;;;;;;;;;;20972289;28;20266;-73
2023/08/03 07:57:45;;;;;;;1.90;0.50;;;;;;;;;;20963208;28;20271;-73
2023/08/03 08:07:47;;;;;;;0.70;0.30;;;;;;;;;;20956950;28;20215;-73
2023/08/03 08:17:48;;;;;;;1.43;0.40;;;;;;;;;;20964626;28;20275;-73
2023/08/03 08:27:52;;;;;;;0.30;0.30;;;;;;;;;;20977928;28;20217;-73
2023/08/03 08:37:53;;;;;;;0.67;0.40;;;;;;;;;;20973973;28;20268;-72
2023/08/03 08:47:56;;;;;;;1.60;0.37;;;;;;;;;;20973934;28;20278;-71
2023/08/03 08:57:58;;;;;;;2.27;0.43;;;;;;;;;;20918403;28;20233;-72
2023/08/03 09:08:05;;;;;;;0.60;0.30;;;;;;;;;;20926195;28;20238;-71
2023/08/03 09:18:07;;;;;;;2.87;0.43;;;19.30;99.90;;;;;;20881349;28;20207;-71
2023/08/03 09:28:09;;;;;;;0.93;0.40;;;;;;;;;;20931698;28;20220;-70
2023/08/03 09:38:23;;;;;;;1.17;0.40;;;;;;;;;;20968490;28;20238;-72
2023/08/03 09:48:26;;;;;;;0.87;0.30;;;;;;;;;;20928306;28;20484;-74
2023/08/03 09:58:55;;;;;;;2.20;0.67;;;19.50;99.90;;;;;;20949424;28;20200;-73
2023/08/03 10:08:57;;;;;;;1.60;0.40;;;;;;;;;;20913539;28;20700;-72
2023/08/03 10:19:00;;;;;;;0.20;0.20;;;;;;;;;;20967079;28;20237;-74
2023/08/03 10:29:02;;;;;;;0.93;0.23;;;;;;;;;;20955722;28;20224;-71
2023/08/03 10:39:09;;;;;;;0.53;0.20;;;19.80;99.90;;;;;;20940120;28;20714;-72
2023/08/03 10:49:23;;;;;;;0.97;0.37;;;;;;;;;;20992998;28;20559;-71
2023/08/03 10:59:24;;;;;;;1.30;0.50;;;;;;;;;;20951901;28;20710;-72
2023/08/03 11:09:26;;;;;;;0.30;0.20;;;;;;;;;;20917654;28;20224;-72
2023/08/03 11:19:32;;;;;;;0.73;0.30;;;;;;;;;;20937249;28;20217;-73
2023/08/03 11:29:35;;;;;;;0.70;0.20;;;;;;;;;;20961518;28;20281;-72
2023/08/03 11:39:37;;;;;;;0.20;0.20;;;;;;;;;;20966929;28;20247;-73
2023/08/03 11:49:39;;;;;;;1.13;0.30;;;;;;;;;;20975936;28;20258;-74
2023/08/03 11:59:41;;;;;;;0.67;0.67;;;;;;;;;;20977048;28;20630;-73
2023/08/03 12:09:42;;;;;;;0.30;0.23;;;;;;;;;;20944978;28;20711;-72
2023/08/03 12:19:44;;;;;;;0.20;0.20;;;;;;;;;;20929525;28;20269;-71
2023/08/03 12:29:46;;;;;;;1.10;0.30;;;;;;;;;;20968798;28;20214;-72
2023/08/03 12:39:47;;;;;;;1.00;0.38;;;;;;;;;;20977029;28;20215;-71
2023/08/03 12:49:49;;;;;;;1.10;0.27;;;;;;;;;;20969895;28;20244;-72
2023/08/03 12:59:50;;;;;;;1.85;0.20;;;;;;;;;;20980980;28;20675;-72
2023/08/03 13:09:52;;;;;;;0.20;0.20;;;;;;;;;;20896868;28;20220;-73
2023/08/03 13:19:54;;;;;;;0.30;0.30;;;;;;;;;;20906279;28;20265;-74
2023/08/03 13:29:55;;;;;;;0.47;0.30;;;;;;;;;;20925592;22;20792;-72
2023/08/03 13:39:57;;;;;;;3.38;0.75;;;;;;;;;;20846908;28;20216;-73
2023/08/03 13:50:00;;;;;;;1.05;0.45;;;;;;;;;;20869941;28;20243;-72
2023/08/03 14:00:03;;;;;;;0.68;0.40;;;;;;;;;;20878551;28;20272;-72
2023/08/03 14:10:08;;;;;;;0.20;0.20;;;;;;;;;;20894466;28;20227;-72
2023/08/03 14:20:10;;;;;;;0.88;0.30;;;;;;;;;;20861200;28;20270;-72
2023/08/03 14:30:15;;;;;;;2.17;0.50;;;;;;;;;;20867979;28;20237;-72
2023/08/03 14:40:17;;;;;;;1.08;0.30;;;;;;;;;;20886552;28;20752;-73
2023/08/03 14:50:18;;;;;;;1.15;0.43;;;;;;;;;;20859677;28;20228;-74
2023/08/03 15:00:20;;;;;;;0.50;0.30;;;;;;;;;;20855865;28;20274;-75
2023/08/03 15:10:22;;;;;;;0.50;0.38;;;;;;;;;;20872596;28;20228;-72
2023/08/03 15:20:24;;;;;;;0.47;0.30;;;;;;;;;;20872245;28;20224;-73
2023/08/03 15:30:25;;;;;;;0.25;0.20;;;;;;;;;;20854644;28;20229;-73
2023/08/03 15:40:27;;;;;;;0.28;0.20;;;;;;;;;;20855426;28;20208;-72
2023/08/03 15:50:30;;;;;;;1.17;0.32;;;;;;;;;;20884487;28;20293;-73
2023/08/03 16:00:32;;;;;;;0.82;0.30;;;;;;;;;;20869095;28;20274;-72
2023/08/03 16:10:35;;;;;;;0.75;0.30;;;;;;;;;;20851848;28;20246;-73
2023/08/03 16:20:37;;;;;;;0.32;0.20;;;;;;;;;;20850634;28;20227;-72
2023/08/03 16:30:39;;;;;;;0.55;0.30;;;;;;;;;;20849724;28;20227;-72
2023/08/03 16:40:41;;;;;;;0.32;0.30;;;;;;;;;;20848334;28;20269;-73
2023/08/03 16:50:43;;;;;;;0.75;0.32;;;;;;;;;;20862863;28;20212;-73
2023/08/03 17:00:44;;;;;;;0.30;0.30;;;;;;;;;;20848915;28;20213;-72
2023/08/03 17:10:46;;;;;;;0.82;0.38;;;;;;;;;;20849971;28;20228;-72
2023/08/03 17:20:48;;;;;;;0.30;0.30;;;;;;;;;;20874667;28;20296;-72
2023/08/03 17:30:50;;;;;;;0.22;0.20;;;;;;;;;;20862472;28;20221;-72
2023/08/03 17:40:53;;;;;;;0.80;0.30;;;;;;;;;;20822429;28;20223;-72
2023/08/03 17:50:54;;;;;;;0.20;0.20;;;;;;;;;;20858682;28;20289;-72
2023/08/03 18:00:56;;;;;;;0.30;0.30;;;;;;;;;;20846789;28;20293;-72
2023/08/03 18:11:02;;;;;;;0.20;0.20;;;;;;;;;;20835366;28;20276;-72
2023/08/03 18:21:16;;;;;;;0.97;0.40;;;21.70;99.90;;;;;;20844213;28;20218;-72
2023/08/03 18:31:19;;;;;;;0.40;0.40;;;;;;;;;;20875165;28;20230;-72
2023/08/03 18:41:24;;;;;;;0.90;0.40;;;;;;;;;;20858431;28;20324;-72
2023/08/03 18:51:26;;;;;;;0.97;0.33;;;;;;;;;;20859907;28;20698;-72
2023/08/03 19:01:31;;;;;;;0.80;0.30;;;;;;;;;;20861928;28;20239;-72
2023/08/03 19:11:33;;;;;;;1.90;0.30;;;;;;;;;;20853009;28;20227;-72
2023/08/03 19:21:34;;;;;;;3.97;0.40;;;;;;;;;;20848726;28;20254;-71
2023/08/03 19:31:36;;;;;;;0.63;0.40;;;;;;;;;;20863771;28;20226;-71
2023/08/03 19:41:38;;;;;;;1.90;0.70;;;;;;;;;;20852312;28;20206;-71
2023/08/03 19:51:40;;;;;;;0.67;0.30;;;;;;;;;;20875031;28;20214;-70
2023/08/03 20:01:41;;;;;;;0.73;0.20;;;;;;;;;;20842442;28;20284;-71
2023/08/03 20:11:43;;;;;;;1.83;0.40;;;;;;;;;;20851419;28;20773;-71
2023/08/03 20:21:45;;;;;;;0.90;0.40;;;;;;;;;;20851794;28;20858;-71
2023/08/03 20:31:48;;;;;;;0.53;0.30;;;;;;;;;;20892783;22;20221;-75
2023/08/03 20:41:50;;;;;;;0.83;0.40;;;;;;;;;;20948351;28;20692;-76
2023/08/03 20:51:51;;;;;;;0.33;0.27;;;;;;;;;;20987101;28;20279;-75
2023/08/03 21:01:53;;;;;;;0.80;0.40;;;;;;;;;;20955411;28;20240;-72
2023/08/03 21:11:55;;;;;;;0.23;0.23;;;;;;;;;;20928011;28;20224;-73
2023/08/03 21:21:57;;;;;;;0.67;0.27;;;;;;;;;;20963114;28;20230;-75
2023/08/03 21:31:59;;;;;;;1.40;0.40;;;;;;;;;;20979478;28;20275;-74
2023/08/03 21:42:01;;;;;;;1.97;0.33;;;;;;;;;;20934151;28;20566;-73
2023/08/03 21:52:03;;;;;;;0.27;0.20;;;;;;;;;;20949822;28;20770;-73
2023/08/03 22:02:04;;;;;;;0.27;0.27;;;;;;;;;;20894182;28;20281;-73
2023/08/03 22:12:07;;;;;;;1.70;0.40;;;;;;;;;;20926448;28;20239;-73
2023/08/03 22:22:08;;;;;;;1.23;0.40;;;;;;;;;;20939527;28;20231;-73
2023/08/03 22:32:10;;;;;;;1.00;0.50;;;;;;;;;;20918535;28;20247;-73
2023/08/03 22:42:12;;;;;;;1.33;0.60;;;;;;;;;;20934812;28;20289;-74
2023/08/03 22:52:14;;;;;;;0.60;0.30;;;;;;;;;;20974842;28;20726;-74
2023/08/03 23:02:15;;;;;;;1.43;0.40;;;;;;;;;;20942412;28;20251;-74
2023/08/03 23:12:17;;;;;;;1.50;0.40;;;;;;;;;;20974535;28;20667;-74
2023/08/03 23:22:18;;;;;;;0.60;0.30;;;;;;;;;;20888044;28;20232;-74
2023/08/03 23:32:20;;;;;;;0.47;0.30;;;;;;;;;;20934730;28;20223;-75
2023/08/03 23:42:23;;;;;;;0.47;0.40;;;;;;;;;;20931639;28;20214;-74
2023/08/03 23:52:24;;;;;;;1.00;0.37;;;;;;;;;;20963798;28;20225;-75
